Arlington, VA

9:47 PM EDT on September 30, 2016 (GMT -0400)
Ashton Heights | | Change Station
Active Advisory: Coastal Flood Advisory

Elev 280 ft 38.88 °N, 77.10 °W | Updated 47 minutes ago

Light Drizzle
Light Drizzle Mist
63.3 °F
Feels Like 63.3 °F
N
3.8
Wind Variable Wind from North
Gusts 15.9 mph

Today
High -- | Low -- °F
--% Chance of Precip.
Yesterday
High -- | Low -- °F
Precip. -- in
Pressure 30.13 in
Visibility 6.0 miles
Clouds Overcast 700 ft
Dew Point 62 °F
Humidity 97%
Rainfall 0.14 in
Snow Depth Not available.
7:03 AM 6:51 PM
New Moon, 0% visible
SPECI KDCA 010131Z 06014KT 6SM -DZ BR OVC007 18/18 A3013 RMK AO2 P0000 T01830178
Pressure 30.13 in
Visibility 6.0 miles
Clouds Overcast 700 ft
Dew Point 62 °F
Humidity 97%
Rainfall 0.14 in
Snow Depth Not available.
7:03 AM 6:51 PM
New Moon, 0% visible
SPECI KDCA 010131Z 06014KT 6SM -DZ BR OVC007 18/18 A3013 RMK AO2 P0000 T01830178

10-Day Weather Forecast

Almanac

Astronomy

Sep. 30, 2016 Rise Set
Actual Time
Civil Twilight
Nautical Twilight
Astronomical Twilight
Moon
Length of Visible Light
Length of Day
Tomorrow will be .
, % of the Moon is Illuminated

Today's Extremes

State Highs State Lows

Community

WunderPhotos

Upload Photos

1,942,837 photos uploaded!

WunderBlog® & News

Nearby

Air Quality

  Air Quality AQ Index Pollutant
Not available.

Snow Depth

Station Depth Elevation

Earthquake Activity

City Distance Mag. Time & Date
Minimum magnitude displayed is 2.5.

Coastal Water Temperatures

Place Temperature

Stations

Nearby Weather Stations

Station Location Temp. Windchill Dew Point Humidity Wind Precip. Elev Updated Type
                   

Watches & Warnings

Coastal Flood Advisory
Issued: 6:52 PM EDT Sep. 30, 2016 – National Weather Service

... Coastal Flood Advisory remains in effect until midnight EDT
Saturday night...

* tidal anomaly... around 1.75 feet above normal.

* Timing... several hours around high tide through Saturday
evening. Minor coastal flooding will persist into Sunday.

* Expected impacts... minor inundation of low lying shoreline
near southwest Waterfront... Georgetown... and Roosevelt Island
in the District of Columbia. In Old Town Alexandria... water
will reach the intersection of King Street and Union street
within a couple hours of high tide.

Here are the times of the next high tides
Washington Channel... 8:42 PM and 9:03 am...
Alexandria... 9:00 PM and 9:21 am...


Precautionary/preparedness actions...

A coastal Flood Advisory indicates that onshore winds and tides
will combine to generate flooding of low areas along the shore.